createdAt,value
2018-12-30T00:01:18.132Z,51.16
2018-12-30T00:03:45.996Z,51.05
2018-12-30T00:06:14.259Z,51.08
2018-12-30T00:08:42.248Z,51.02
2018-12-30T00:11:10.013Z,50.99
2018-12-30T00:13:37.803Z,50.94
2018-12-30T00:16:05.927Z,50.93
2018-12-30T00:18:33.661Z,50.92
2018-12-30T00:21:08.805Z,50.96
2018-12-30T00:23:31.311Z,50.91
2018-12-30T00:25:59.106Z,50.88
2018-12-30T00:28:26.953Z,50.96
2018-12-30T00:30:54.716Z,50.80
2018-12-30T00:33:22.432Z,50.84
2018-12-30T00:35:50.465Z,50.80
2018-12-30T00:38:18.488Z,50.88
2018-12-30T00:40:46.279Z,50.71
2018-12-30T00:43:14.128Z,50.78
2018-12-30T00:45:42.293Z,50.78
2018-12-30T00:48:10.392Z,50.87
2018-12-30T00:50:38.271Z,50.76
2018-12-30T00:53:06.650Z,50.78
2018-12-30T00:55:34.383Z,50.91
2018-12-30T00:58:02.174Z,50.81
2018-12-30T01:00:29.996Z,50.83
2018-12-30T01:02:57.721Z,50.80
2018-12-30T01:05:25.868Z,50.77
2018-12-30T01:07:53.655Z,50.77
2018-12-30T01:10:21.546Z,50.71
2018-12-30T01:12:49.328Z,50.70
2018-12-30T01:15:17.155Z,50.66
2018-12-30T01:17:45.202Z,50.59
2018-12-30T01:20:13.335Z,50.63
2018-12-30T01:22:41.123Z,50.63
2018-12-30T01:25:08.943Z,50.58
2018-12-30T01:27:36.719Z,50.54
2018-12-30T01:30:04.707Z,50.49
2018-12-30T01:32:32.423Z,50.43
2018-12-30T01:35:00.411Z,50.45
2018-12-30T01:37:28.231Z,50.42
2018-12-30T01:39:56.066Z,50.47
2018-12-30T01:42:23.783Z,50.40
2018-12-30T01:44:51.567Z,50.39
2018-12-30T01:47:19.627Z,50.39
2018-12-30T01:49:47.419Z,50.34
2018-12-30T01:52:15.209Z,50.29
2018-12-30T01:54:42.927Z,50.29
2018-12-30T01:57:10.771Z,50.37
2018-12-30T01:59:38.551Z,50.31
2018-12-30T02:02:06.254Z,50.34
2018-12-30T02:04:34.216Z,50.37
2018-12-30T02:07:01.925Z,50.47
2018-12-30T02:09:29.826Z,50.36
2018-12-30T02:11:57.522Z,50.44
2018-12-30T02:14:25.282Z,50.33
2018-12-30T02:16:53.251Z,50.37
2018-12-30T02:19:20.983Z,50.32
2018-12-30T02:21:48.721Z,50.31
2018-12-30T02:24:16.442Z,50.27
2018-12-30T02:26:44.206Z,50.27
2018-12-30T02:29:11.998Z,50.30
2018-12-30T02:31:39.803Z,50.22
2018-12-30T02:34:07.594Z,50.22
2018-12-30T02:36:35.387Z,50.17
2018-12-30T02:39:04.168Z,50.19
2018-12-30T02:41:31.984Z,50.19
2018-12-30T02:44:00.066Z,50.14
2018-12-30T02:46:27.827Z,50.06
2018-12-30T02:48:55.570Z,50.12
2018-12-30T02:51:23.355Z,50.11
2018-12-30T02:53:51.616Z,50.08
2018-12-30T02:56:19.820Z,50.03
2018-12-30T02:58:47.542Z,50.00
2018-12-30T03:01:15.282Z,50.02
2018-12-30T03:03:43.006Z,49.99
2018-12-30T03:06:10.819Z,49.94
2018-12-30T03:08:38.557Z,49.95
2018-12-30T03:11:06.292Z,49.81
2018-12-30T03:13:34.067Z,49.77
2018-12-30T03:16:01.789Z,49.72
2018-12-30T03:18:29.538Z,49.69
2018-12-30T03:20:57.276Z,49.69
2018-12-30T03:23:25.007Z,49.66
2018-12-30T03:25:52.781Z,49.68
2018-12-30T03:28:20.499Z,49.70
2018-12-30T03:30:48.512Z,49.73
2018-12-30T03:33:16.282Z,49.66
2018-12-30T03:35:44.031Z,49.73
2018-12-30T03:38:11.759Z,49.74
2018-12-30T03:40:39.480Z,49.76
2018-12-30T03:43:07.201Z,49.71
2018-12-30T03:45:34.930Z,49.68
2018-12-30T03:48:02.739Z,49.80
2018-12-30T03:50:30.554Z,49.62
2018-12-30T03:52:58.286Z,49.60
2018-12-30T03:55:26.071Z,49.50
2018-12-30T03:57:53.782Z,49.68
2018-12-30T04:00:21.546Z,49.41
2018-12-30T04:02:49.253Z,49.58
2018-12-30T04:05:16.991Z,49.60
2018-12-30T04:07:44.722Z,49.39
2018-12-30T04:10:12.855Z,49.39
2018-12-30T04:12:40.559Z,49.25
2018-12-30T04:15:08.391Z,49.23
2018-12-30T04:17:36.386Z,49.12
2018-12-30T04:20:04.495Z,49.04
2018-12-30T04:22:33.884Z,49.08
2018-12-30T04:25:01.884Z,49.09
2018-12-30T04:27:29.604Z,49.07
2018-12-30T04:29:57.312Z,49.06
2018-12-30T04:32:25.388Z,49.00
2018-12-30T04:34:53.130Z,48.97
2018-12-30T04:37:20.859Z,48.90
2018-12-30T04:39:48.581Z,48.80
2018-12-30T04:42:16.621Z,48.97
2018-12-30T04:44:44.644Z,48.90
2018-12-30T04:47:12.666Z,48.95
2018-12-30T04:49:40.569Z,48.93
2018-12-30T04:52:08.279Z,48.91
2018-12-30T04:54:35.999Z,49.00
2018-12-30T04:57:03.715Z,49.12
2018-12-30T04:59:31.508Z,49.07
2018-12-30T05:01:59.250Z,49.24
2018-12-30T05:04:26.954Z,49.19
2018-12-30T05:06:54.699Z,49.10
2018-12-30T05:09:22.480Z,49.20
2018-12-30T05:11:50.462Z,49.26
2018-12-30T05:14:18.222Z,49.40
2018-12-30T05:16:45.942Z,49.29
2018-12-30T05:19:13.650Z,49.28
2018-12-30T05:21:41.403Z,49.25
2018-12-30T05:24:09.152Z,49.30
2018-12-30T05:26:37.132Z,49.37
2018-12-30T05:29:04.867Z,49.17
2018-12-30T05:31:32.931Z,49.21
2018-12-30T05:34:00.640Z,48.78
2018-12-30T05:36:28.420Z,48.74
2018-12-30T05:38:56.183Z,48.74
2018-12-30T05:41:23.895Z,48.68
2018-12-30T05:43:51.666Z,48.68
2018-12-30T05:46:19.455Z,48.61
2018-12-30T05:48:47.163Z,48.61
2018-12-30T05:51:14.871Z,48.67
2018-12-30T05:53:42.596Z,48.53
2018-12-30T05:56:10.616Z,48.57
2018-12-30T05:58:38.343Z,48.49
2018-12-30T06:01:06.064Z,48.51
2018-12-30T06:03:33.819Z,48.44
2018-12-30T06:06:01.661Z,48.50
2018-12-30T06:08:29.451Z,48.52
2018-12-30T06:10:57.180Z,48.60
2018-12-30T06:13:24.883Z,48.62
2018-12-30T06:15:52.618Z,48.63
2018-12-30T06:18:20.346Z,48.67
2018-12-30T06:20:48.062Z,48.75
2018-12-30T06:23:15.793Z,48.90
2018-12-30T06:25:43.502Z,48.92
2018-12-30T06:28:11.278Z,48.86
2018-12-30T06:30:39.015Z,48.98
2018-12-30T06:33:06.895Z,48.87
2018-12-30T06:35:34.615Z,48.89
2018-12-30T06:38:02.342Z,48.76
2018-12-30T06:40:30.057Z,48.99
2018-12-30T06:42:57.799Z,48.91
2018-12-30T06:45:25.507Z,49.03
2018-12-30T06:47:53.227Z,48.93
2018-12-30T06:50:21.435Z,49.00
2018-12-30T06:52:49.182Z,48.84
2018-12-30T06:55:16.955Z,48.94
2018-12-30T06:57:44.677Z,49.01
2018-12-30T07:00:12.432Z,48.89
2018-12-30T07:02:40.146Z,48.92
2018-12-30T07:05:07.893Z,48.86
2018-12-30T07:07:35.655Z,48.70
2018-12-30T07:10:03.574Z,48.70
2018-12-30T07:12:31.382Z,48.63
2018-12-30T07:14:59.091Z,48.63
2018-12-30T07:17:26.858Z,48.52
2018-12-30T07:19:55.971Z,48.54
2018-12-30T07:22:23.682Z,48.64
2018-12-30T07:24:51.418Z,48.63
2018-12-30T07:27:19.392Z,48.66
2018-12-30T07:29:47.194Z,48.72
2018-12-30T07:32:14.911Z,48.70
2018-12-30T07:34:42.707Z,48.74
2018-12-30T07:37:10.413Z,48.82
2018-12-30T07:39:38.470Z,48.74
2018-12-30T07:42:06.452Z,48.81
2018-12-30T07:44:34.197Z,48.75
2018-12-30T07:47:02.349Z,48.70
2018-12-30T07:49:30.067Z,48.72
2018-12-30T07:51:58.168Z,48.58
2018-12-30T07:54:25.926Z,48.65
2018-12-30T07:56:53.659Z,48.38
2018-12-30T07:59:21.509Z,48.39
2018-12-30T08:01:49.874Z,48.45
2018-12-30T08:04:17.655Z,48.43
2018-12-30T08:06:45.494Z,48.62
2018-12-30T08:09:13.412Z,48.55
2018-12-30T08:11:41.574Z,48.33
2018-12-30T08:14:09.454Z,48.38
2018-12-30T08:16:37.336Z,48.25
2018-12-30T08:19:05.148Z,48.59
2018-12-30T08:21:32.952Z,48.33
2018-12-30T08:24:01.121Z,48.38
2018-12-30T08:26:29.047Z,47.95
2018-12-30T08:28:56.771Z,47.78
2018-12-30T08:31:24.511Z,47.83
2018-12-30T08:33:52.259Z,48.10
2018-12-30T08:36:20.020Z,47.48
2018-12-30T08:38:47.792Z,47.74
2018-12-30T08:41:16.019Z,47.95
2018-12-30T08:43:43.734Z,47.73
2018-12-30T08:46:11.483Z,47.89
2018-12-30T08:48:39.247Z,47.89
2018-12-30T08:51:07.037Z,47.98
2018-12-30T08:53:35.055Z,47.84
2018-12-30T08:56:02.777Z,47.86
2018-12-30T08:58:30.495Z,47.91
2018-12-30T09:00:58.480Z,47.93
2018-12-30T09:03:26.215Z,48.01
2018-12-30T09:05:53.949Z,48.08
2018-12-30T09:08:21.964Z,48.07
2018-12-30T09:10:49.772Z,48.01
2018-12-30T09:13:17.494Z,48.29
2018-12-30T09:15:45.210Z,48.16
2018-12-30T09:18:12.948Z,48.19
2018-12-30T09:20:40.722Z,48.27
2018-12-30T09:23:08.504Z,48.23
2018-12-30T09:25:36.304Z,48.18
2018-12-30T09:28:04.011Z,48.32
2018-12-30T09:30:33.849Z,48.45
2018-12-30T09:33:01.559Z,48.39
2018-12-30T09:35:29.290Z,48.89
2018-12-30T09:37:57.031Z,49.43
2018-12-30T09:40:24.801Z,49.62
2018-12-30T09:42:52.582Z,49.68
2018-12-30T09:45:20.588Z,49.86
2018-12-30T09:47:48.383Z,49.94
2018-12-30T09:50:16.126Z,49.68
2018-12-30T09:52:43.840Z,49.88
2018-12-30T09:55:11.571Z,50.38
2018-12-30T09:57:39.311Z,50.48
2018-12-30T10:00:07.425Z,49.90
2018-12-30T10:02:35.398Z,50.34
2018-12-30T10:05:03.147Z,49.97
2018-12-30T10:07:30.875Z,50.09
2018-12-30T10:09:58.611Z,50.00
2018-12-30T10:12:26.335Z,50.01
2018-12-30T10:14:54.040Z,50.00
2018-12-30T10:17:22.390Z,49.92
2018-12-30T10:19:50.116Z,50.09
2018-12-30T10:22:17.835Z,50.60
2018-12-30T10:24:45.858Z,50.31
2018-12-30T10:27:13.570Z,50.60
2018-12-30T10:29:41.291Z,50.47
2018-12-30T10:32:09.543Z,50.37
2018-12-30T10:34:37.256Z,50.23
2018-12-30T10:37:05.042Z,50.47
2018-12-30T10:39:32.784Z,50.57
2018-12-30T10:42:00.516Z,50.40
2018-12-30T10:44:28.280Z,50.86
2018-12-30T10:46:55.992Z,50.72
2018-12-30T10:49:23.729Z,50.40
2018-12-30T10:51:51.511Z,50.58
2018-12-30T10:54:19.236Z,50.60
2018-12-30T10:56:46.981Z,50.50
2018-12-30T10:59:14.982Z,50.43
2018-12-30T11:01:42.734Z,50.56
2018-12-30T11:04:10.454Z,50.90
2018-12-30T11:06:38.268Z,50.95
2018-12-30T11:09:06.863Z,51.09
2018-12-30T11:11:34.581Z,50.83
2018-12-30T11:14:02.322Z,50.95
2018-12-30T11:16:30.070Z,51.17
2018-12-30T11:18:57.811Z,50.97
2018-12-30T11:21:25.512Z,50.92
2018-12-30T11:23:53.334Z,50.68
2018-12-30T11:26:21.122Z,50.63
2018-12-30T11:28:49.168Z,50.66
2018-12-30T11:31:16.869Z,50.72
2018-12-30T11:33:44.604Z,50.74
2018-12-30T11:36:12.321Z,50.94
2018-12-30T11:38:40.059Z,51.19
2018-12-30T11:41:07.798Z,50.83
2018-12-30T11:43:35.522Z,50.67
2018-12-30T11:46:03.339Z,50.32
2018-12-30T11:48:31.043Z,50.51
2018-12-30T11:50:58.766Z,50.45
2018-12-30T11:53:26.884Z,50.69
2018-12-30T11:55:54.699Z,50.57
2018-12-30T11:58:22.456Z,50.37
2018-12-30T12:00:50.234Z,50.37
2018-12-30T12:03:18.187Z,50.43
2018-12-30T12:05:46.282Z,50.17
2018-12-30T12:08:14.211Z,50.57
2018-12-30T12:10:41.930Z,50.24
2018-12-30T12:13:09.650Z,50.28
2018-12-30T12:15:38.288Z,50.35
2018-12-30T12:18:07.597Z,50.32
2018-12-30T12:20:35.363Z,50.32
2018-12-30T12:23:03.266Z,50.33
2018-12-30T12:25:32.872Z,50.42
2018-12-30T12:28:01.263Z,50.25
2018-12-30T12:30:29.372Z,50.25
2018-12-30T12:32:57.179Z,50.40
2018-12-30T12:35:25.014Z,50.37
2018-12-30T12:37:52.806Z,50.14
2018-12-30T12:40:20.527Z,50.24
2018-12-30T12:42:48.276Z,50.23
2018-12-30T12:45:16.039Z,50.01
2018-12-30T12:47:43.826Z,50.13
2018-12-30T12:50:11.860Z,50.27
2018-12-30T12:52:39.625Z,50.18
2018-12-30T12:55:07.354Z,50.23
2018-12-30T12:57:35.061Z,50.15
2018-12-30T13:00:02.919Z,50.33
2018-12-30T13:02:30.708Z,50.12
2018-12-30T13:04:58.455Z,50.12
2018-12-30T13:07:26.192Z,50.37
2018-12-30T13:09:56.670Z,50.04
2018-12-30T13:12:24.438Z,50.29
2018-12-30T13:14:52.451Z,50.03
2018-12-30T13:17:22.582Z,50.12
2018-12-30T13:19:50.658Z,50.00
2018-12-30T13:22:18.368Z,49.87
2018-12-30T13:24:46.262Z,49.56
2018-12-30T13:27:13.991Z,49.60
2018-12-30T13:29:41.763Z,49.90
2018-12-30T13:32:09.490Z,49.70
2018-12-30T13:34:37.227Z,50.04
2018-12-30T13:37:05.191Z,49.69
2018-12-30T13:39:32.931Z,49.94
2018-12-30T13:42:00.647Z,49.87
2018-12-30T13:44:28.379Z,49.98
2018-12-30T13:46:56.660Z,49.96
2018-12-30T13:49:24.436Z,50.14
2018-12-30T13:51:53.218Z,50.00
2018-12-30T13:54:21.103Z,50.01
2018-12-30T13:56:48.835Z,50.00
2018-12-30T13:59:16.538Z,49.83
2018-12-30T14:01:44.258Z,49.71
2018-12-30T14:04:11.994Z,49.72
2018-12-30T14:06:40.802Z,49.76
2018-12-30T14:09:08.534Z,49.55
2018-12-30T14:11:36.567Z,49.32
2018-12-30T14:14:04.307Z,49.31
2018-12-30T14:16:32.431Z,49.41
2018-12-30T14:19:00.609Z,49.33
2018-12-30T14:21:28.585Z,49.25
2018-12-30T14:23:56.401Z,49.26
2018-12-30T14:26:24.123Z,49.38
2018-12-30T14:28:52.073Z,49.37
2018-12-30T14:31:19.988Z,49.50
2018-12-30T14:33:47.731Z,49.31
2018-12-30T14:36:15.496Z,49.62
2018-12-30T14:38:43.263Z,50.08
2018-12-30T14:41:11.031Z,49.57
2018-12-30T14:43:39.078Z,49.59
2018-12-30T14:46:06.805Z,49.54
2018-12-30T14:48:34.611Z,49.57
2018-12-30T14:51:02.616Z,49.56
2018-12-30T14:53:30.343Z,49.57
2018-12-30T14:55:58.081Z,49.64
2018-12-30T14:58:25.790Z,49.67
2018-12-30T15:00:53.510Z,49.58
2018-12-30T15:03:21.273Z,49.55
2018-12-30T15:05:48.990Z,49.60
2018-12-30T15:08:16.740Z,49.64
2018-12-30T15:10:44.463Z,49.64
2018-12-30T15:13:12.199Z,49.64
2018-12-30T15:15:39.923Z,49.70
2018-12-30T15:18:07.632Z,49.76
2018-12-30T15:20:35.364Z,49.76
2018-12-30T15:23:03.166Z,49.72
2018-12-30T15:25:30.890Z,49.72
2018-12-30T15:27:58.619Z,49.67
2018-12-30T15:30:26.321Z,49.49
2018-12-30T15:32:54.074Z,49.47
2018-12-30T15:35:21.907Z,49.41
2018-12-30T15:37:49.697Z,49.35
2018-12-30T15:40:17.471Z,49.36
2018-12-30T15:42:45.233Z,49.42
2018-12-30T15:45:12.994Z,49.43
2018-12-30T15:47:40.714Z,49.34
2018-12-30T15:50:08.644Z,49.28
2018-12-30T15:52:36.378Z,49.28
2018-12-30T15:55:04.111Z,49.34
2018-12-30T15:57:31.830Z,49.21
2018-12-30T15:59:59.563Z,49.15
2018-12-30T16:02:27.279Z,49.36
2018-12-30T16:04:54.996Z,49.21
2018-12-30T16:07:22.792Z,49.30
2018-12-30T16:09:50.500Z,49.30
2018-12-30T16:12:18.206Z,49.33
2018-12-30T16:14:46.248Z,49.33
2018-12-30T16:17:13.971Z,49.31
2018-12-30T16:19:41.692Z,49.29
2018-12-30T16:22:09.412Z,49.34
2018-12-30T16:24:37.146Z,49.27
2018-12-30T16:27:04.866Z,49.35
2018-12-30T16:29:32.632Z,49.28
2018-12-30T16:32:00.653Z,49.26
2018-12-30T16:34:28.363Z,49.20
2018-12-30T16:36:56.114Z,49.28
2018-12-30T16:39:23.876Z,49.18
2018-12-30T16:41:51.589Z,49.32
2018-12-30T16:44:19.311Z,49.12
2018-12-30T16:46:47.133Z,48.91
2018-12-30T16:49:14.885Z,48.85
2018-12-30T16:51:42.639Z,48.62
2018-12-30T16:54:10.503Z,48.72
2018-12-30T16:56:38.250Z,48.40
2018-12-30T16:59:05.995Z,48.43
2018-12-30T17:01:33.812Z,48.36
2018-12-30T17:04:01.522Z,48.39
2018-12-30T17:06:33.887Z,48.30
2018-12-30T17:08:58.755Z,48.10
2018-12-30T17:11:26.509Z,48.13
2018-12-30T17:13:54.285Z,48.09
2018-12-30T17:16:22.138Z,48.37
2018-12-30T17:18:55.891Z,48.27
2018-12-30T17:21:21.339Z,48.34
2018-12-30T17:23:48.832Z,48.51
2018-12-30T17:26:16.535Z,48.62
2018-12-30T17:28:44.238Z,48.35
2018-12-30T17:31:12.347Z,48.51
2018-12-30T17:33:40.104Z,48.13
2018-12-30T17:36:07.934Z,48.64
2018-12-30T17:38:35.656Z,48.57
2018-12-30T17:41:03.388Z,48.47
2018-12-30T17:43:31.233Z,48.48
2018-12-30T17:45:59.293Z,48.40
2018-12-30T17:48:27.003Z,48.86
2018-12-30T17:50:55.547Z,48.01
2018-12-30T17:53:23.696Z,48.10
2018-12-30T17:55:51.419Z,48.18
2018-12-30T17:58:19.225Z,48.48
2018-12-30T18:00:46.986Z,48.49
2018-12-30T18:03:14.730Z,48.47
2018-12-30T18:05:42.453Z,48.50
2018-12-30T18:08:10.268Z,48.39
2018-12-30T18:10:38.171Z,48.26
2018-12-30T18:13:05.919Z,48.06
2018-12-30T18:15:34.034Z,48.46
2018-12-30T18:18:01.878Z,47.76
2018-12-30T18:20:29.672Z,47.57
2018-12-30T18:22:57.875Z,48.01
2018-12-30T18:25:25.599Z,47.98
2018-12-30T18:27:53.311Z,47.16
2018-12-30T18:30:21.688Z,47.55
2018-12-30T18:32:49.399Z,47.41
2018-12-30T18:35:17.119Z,47.39
2018-12-30T18:37:45.275Z,47.71
2018-12-30T18:40:13.076Z,47.64
2018-12-30T18:42:40.856Z,47.91
2018-12-30T18:45:08.739Z,48.09
2018-12-30T18:47:36.605Z,48.06
2018-12-30T18:50:04.639Z,48.06
2018-12-30T18:52:32.433Z,48.19
2018-12-30T18:55:00.261Z,48.25
2018-12-30T18:57:27.999Z,48.32
2018-12-30T18:59:55.803Z,48.55
2018-12-30T19:02:23.615Z,48.56
2018-12-30T19:04:51.473Z,48.59
2018-12-30T19:07:19.385Z,48.70
2018-12-30T19:09:47.127Z,48.71
2018-12-30T19:12:14.838Z,48.77
2018-12-30T19:14:42.666Z,48.83
2018-12-30T19:17:10.435Z,48.90
2018-12-30T19:19:38.288Z,48.94
2018-12-30T19:22:06.074Z,48.90
2018-12-30T19:24:33.924Z,48.98
2018-12-30T19:27:01.940Z,49.11
2018-12-30T19:29:29.871Z,49.16
2018-12-30T19:31:57.711Z,49.23
2018-12-30T19:34:25.444Z,49.29
2018-12-30T19:36:53.500Z,49.22
2018-12-30T19:39:21.206Z,49.31
2018-12-30T19:41:49.041Z,49.42
2018-12-30T19:44:16.842Z,49.42
2018-12-30T19:46:44.622Z,49.52
2018-12-30T19:49:12.323Z,49.41
2018-12-30T19:51:40.222Z,49.39
2018-12-30T19:54:07.990Z,49.35
2018-12-30T19:56:35.755Z,49.44
2018-12-30T19:59:03.843Z,49.26
2018-12-30T20:01:31.600Z,49.17
2018-12-30T20:03:59.397Z,49.12
2018-12-30T20:06:27.475Z,49.00
2018-12-30T20:08:56.452Z,49.01
2018-12-30T20:11:24.308Z,49.02
2018-12-30T20:13:52.383Z,49.02
2018-12-30T20:16:20.151Z,49.03
2018-12-30T20:18:47.920Z,49.11
2018-12-30T20:21:16.260Z,49.05
2018-12-30T20:23:43.988Z,49.09
2018-12-30T20:26:11.747Z,49.04
2018-12-30T20:28:39.687Z,49.22
2018-12-30T20:31:08.111Z,48.93
2018-12-30T20:33:35.915Z,49.11
2018-12-30T20:36:03.850Z,49.06
2018-12-30T20:38:31.577Z,49.15
2018-12-30T20:40:59.309Z,48.93
2018-12-30T20:43:27.103Z,48.77
2018-12-30T20:45:54.887Z,48.87
2018-12-30T20:48:22.693Z,49.31
2018-12-30T20:50:50.558Z,48.95
2018-12-30T20:53:18.298Z,48.78
2018-12-30T20:55:46.023Z,49.17
2018-12-30T20:58:13.852Z,48.88
2018-12-30T21:00:41.638Z,49.45
2018-12-30T21:03:09.369Z,49.11
2018-12-30T21:05:37.106Z,48.95
2018-12-30T21:08:04.851Z,48.72
2018-12-30T21:10:32.582Z,48.81
2018-12-30T21:13:00.681Z,48.46
2018-12-30T21:15:28.381Z,48.64
2018-12-30T21:17:57.020Z,48.64
2018-12-30T21:20:24.927Z,48.56
2018-12-30T21:22:52.930Z,48.61
2018-12-30T21:25:20.671Z,48.32
2018-12-30T21:27:48.423Z,48.57
2018-12-30T21:30:16.134Z,48.49
2018-12-30T21:32:43.886Z,48.67
2018-12-30T21:35:11.607Z,48.81
2018-12-30T21:37:39.598Z,48.20
2018-12-30T21:40:07.518Z,48.69
2018-12-30T21:42:43.460Z,48.52
2018-12-30T21:45:05.166Z,48.36
2018-12-30T21:47:32.880Z,48.91
2018-12-30T21:50:00.648Z,48.37
2018-12-30T21:52:28.462Z,48.47
2018-12-30T21:54:56.179Z,48.48
2018-12-30T21:57:23.894Z,48.68
2018-12-30T21:59:51.766Z,48.47
2018-12-30T22:02:19.487Z,48.54
2018-12-30T22:04:47.220Z,48.55
2018-12-30T22:07:15.028Z,48.47
2018-12-30T22:09:42.789Z,48.44
2018-12-30T22:12:10.907Z,48.45
2018-12-30T22:14:38.695Z,48.38
2018-12-30T22:17:06.485Z,48.95
2018-12-30T22:19:34.550Z,48.73
2018-12-30T22:22:02.443Z,48.69
2018-12-30T22:24:30.399Z,48.55
2018-12-30T22:26:58.139Z,48.31
2018-12-30T22:29:25.903Z,48.86
2018-12-30T22:31:53.742Z,48.22
2018-12-30T22:34:21.483Z,48.07
2018-12-30T22:36:49.263Z,47.90
2018-12-30T22:39:16.992Z,48.02
2018-12-30T22:41:44.963Z,47.85
2018-12-30T22:44:12.780Z,48.05
2018-12-30T22:46:40.514Z,47.70
2018-12-30T22:49:08.248Z,47.98
2018-12-30T22:51:36.000Z,47.55
2018-12-30T22:54:03.778Z,48.03
2018-12-30T22:56:31.873Z,47.77
2018-12-30T22:58:59.609Z,47.95
2018-12-30T23:01:31.470Z,48.06
2018-12-30T23:03:59.179Z,48.26
2018-12-30T23:06:26.984Z,47.91
2018-12-30T23:08:54.787Z,47.87
2018-12-30T23:11:22.632Z,48.60
2018-12-30T23:13:50.423Z,47.88
2018-12-30T23:16:18.202Z,48.46
2018-12-30T23:18:45.941Z,48.48
2018-12-30T23:21:13.722Z,48.58
2018-12-30T23:23:41.443Z,48.31
2018-12-30T23:26:09.153Z,48.13
2018-12-30T23:28:37.207Z,47.64
2018-12-30T23:31:04.943Z,47.86
2018-12-30T23:33:32.647Z,48.01
2018-12-30T23:36:00.374Z,47.93
2018-12-30T23:38:28.119Z,47.88
2018-12-30T23:40:55.846Z,47.73
2018-12-30T23:43:23.607Z,48.12
2018-12-30T23:45:51.402Z,47.75
2018-12-30T23:48:19.187Z,47.74
2018-12-30T23:50:46.911Z,47.61
2018-12-30T23:53:14.658Z,47.46
2018-12-30T23:55:42.358Z,47.76
2018-12-30T23:58:10.095Z,48.01
